< < Back
Terminal Aerodrome Forecast


Current Version              Previous Versions:   1  2  3  4  5  6  7  8  9  

Terminal Aerodrome Forecast

042
FTUS42 KJAX 041720
TAFGNV
TAF
KGNV 041720Z 0418/0518 20011G18KT P6SM SCT030 BKN045
     FM050000 21004KT P6SM SCT040 SCT250
     FM050600 20003KT 1SM BR BKN005 BKN030
     FM051500 21010KT P6SM SCT005 BKN035=

Latest METAR

796
SAUS70 KWBC 042000 RRI
MTRGNV
METAR KGNV 041953Z 23010G18KT 10SM FEW049 28/17 A3006 RMK AO2 SLP176
T02830167


USA.gov is the U.S. government's official web portal to all federal, state and local government web resources and services.